Hadar, Nebraska
Current Conditions -  °F | °C
As of 10:56 AM on Friday 28 Nov 2014 (Local Time) from KOFK Reporting Station
Clear Clear  
Wind Chill: 41°   Ceiling: Unl
Heat Index: 41°   Visibility: 10mi
Dew Point: 26°   Wind: 3mph
Humidity: 55%   Direction: NA
Pressure: 29.75"   Gusts: NA
Location:  42.11°N, 97.45°W
Report Text: KOFK 281656Z AUTO VRB03KT 10SM CLR 05/M03 A2975 RMK AO2 SLP090 T00501033
Loading
Personal Weather Stations






























Interactive Weather Map New forecast layout! Learn more

10-Day Weather Forecast

Advertisements
Track Severe Weather on mobile